Queen Charlotte, Canada
Current Conditions -  °F | °C
As of 7:00 PM on Friday 24 Oct 2014 (Local Time) from CYZP Reporting Station
Scattered Clouds Scattered Clouds  
Wind Chill: 41°   Ceiling: Unl
Heat Index: 48°   Visibility: 9mi
Dew Point: 45°   Wind: 22mph
Humidity: 87%   Direction: 150°SSE
Pressure: 29.77"   Gusts: 32mph
Location:  53.25°N, 132.09°W
Report Text: CYZP 250200Z AUTO 15019G28KT 9SM SCT048 SCT090 09/07 A2977 RMK SLP080
Loading
Personal Weather Stations






























Interactive Weather Map
Tropical Storm Tracking
New forecast layout! Learn more

10-Day Weather Forecast

Advertisements
Track Severe Weather on mobile